Hundvaag 1 weather for Dec 1989
Month no. 30
Obs.
Da.
Temp. Dew Point Precip. Wind
Speed
Wind gusts Cloud cover Press. Humidity Wind dir. Sunny OPT
01.12.1989 1,5   0,0                
02.12.1989 3,3   0,3                
03.12.1989 8,7   0,1                
04.12.1989 4,9   1,5             1  
05.12.1989 2,9   0,0                
06.12.1989 9,0   0,7                
07.12.1989 4,0   0,5                
08.12.1989 6,0   2,7                
09.12.1989 2,2   0,5                
10.12.1989 6,1   3,5                
11.12.1989 3,0   2,7                
12.12.1989 2,6   2,3                
13.12.1989 -1,8   3,6                
14.12.1989 -2,5   2,3                
15.12.1989 -6,0   0,3                
16.12.1989 0,5   12,1                
17.12.1989 2,5   0,8             1  
18.12.1989 5,7   13,9                
19.12.1989 4,0   4,5                
20.12.1989 -0,8   8,2                
21.12.1989 5,4   0,3                
22.12.1989 6,4   6,1                
23.12.1989 3,4   11,1                
24.12.1989 6,1   5,5                
25.12.1989 7,7   22,9                
26.12.1989 6,3   0,9                
27.12.1989 2,7   0,0             1  
28.12.1989 0,1   0,0             1  
29.12.1989 -3,2   0,0             1  
30.12.1989 2,3   0,0                
31.12.1989 1,8   0,0                
Avrg/Sum 3,1   107,4             5